Time;durP1;ratioP1;P1;durP2;ratioP2;P2;SDS_P1;SDS_P2;PMS_P1;PMS_P2;Temp;Humidity;BMP_temperature;BMP_pressure;BME280_temperature;BME280_humidity;BME280_pressure;Samples;Min_cycle;Max_cycle;Signal;HPM_P1;HPM_P2
2023/11/22 00:00:11;;;;;;;;;19.00;19.00;;;;;;;;5069629;28;10135;-79
2023/11/22 00:02:38;;;;;;;;;26.75;20.25;;;;;;;;5074892;28;10059;-79
2023/11/22 00:05:07;;;;;;;;;22.25;22.00;;;;;;;;5074816;28;10172;-78
2023/11/22 00:07:34;;;;;;;;;25.25;20.25;;;;;;;;5074202;28;10301;-79
2023/11/22 00:10:04;;;;;;;;;22.50;22.50;;;;;;;;5072140;28;10435;-79
2023/11/22 00:12:36;;;;;;;;;20.00;19.00;;;;;;;;5072277;28;10279;-79
2023/11/22 00:15:04;;;;;;;;;28.50;20.50;;;;;;;;5073194;28;10196;-79
2023/11/22 00:17:32;;;;;;;;;23.25;21.50;;;;;;;;5073124;28;10262;-78
2023/11/22 00:20:05;;;;;;;;;25.50;24.50;;;;;;;;5059713;28;10103;-80
2023/11/22 00:22:33;;;;;;;;;24.50;23.00;;;;;;;;5070079;28;10192;-79
2023/11/22 00:25:02;;;;;;;;;25.50;21.75;;;;;;;;5071806;28;10129;-79
2023/11/22 00:27:30;;;;;;;;;22.75;22.00;;;;;;;;5071363;28;10108;-79
2023/11/22 00:29:57;;;;;;;;;23.00;21.00;;;;;;;;5069963;28;10123;-79
2023/11/22 00:32:25;;;;;;;;;24.75;24.75;;;;;;;;5069859;28;10052;-79
2023/11/22 00:34:52;;;;;;;;;24.00;22.25;;;;;;;;5071324;28;10863;-79
2023/11/22 00:37:20;;;;;;;;;20.25;19.75;;;;;;;;5069351;28;10149;-79
2023/11/22 00:39:47;;;;;;;;;27.00;23.75;;;;;;;;5071296;28;10098;-79
2023/11/22 00:42:20;;;;;;;;;18.25;18.25;;;;;;;;5070742;28;10039;-78
2023/11/22 00:44:47;;;;;;;;;18.75;18.75;;;;;;;;5071100;28;10107;-79
2023/11/22 00:47:16;;;;;;;;;27.00;23.75;;;;;;;;5070503;28;9892;-79
2023/11/22 00:49:43;;;;;;;;;25.75;22.75;;;;;;;;5071070;28;9866;-79
2023/11/22 00:52:11;;;;;;;;;19.00;19.00;;;;;;;;5070516;28;10194;-79
2023/11/22 00:54:38;;;;;;;;;19.25;19.25;;;;;;;;5071010;28;9970;-79
2023/11/22 00:57:06;;;;;;;;;24.25;21.75;;;;;;;;5070065;28;10115;-79
2023/11/22 00:59:35;;;;;;;;;23.50;21.75;;;;;;;;5071456;28;9938;-79
2023/11/22 01:02:03;;;;;;;;;23.75;21.00;;;;;;;;5069001;28;10063;-79
2023/11/22 01:04:33;;;;;;;;;25.75;21.25;;;;;;;;5070529;28;10186;-79
2023/11/22 01:07:01;;;;;;;;;25.25;24.50;;;;;;;;5070348;28;10033;-79
2023/11/22 01:09:29;;;;;;;;;26.50;22.25;;;;;;;;5070141;28;10146;-79
2023/11/22 01:11:56;;;;;;;;;30.75;26.50;;;;;;;;5069689;28;10115;-78
2023/11/22 01:14:23;;;;;;;;;20.25;20.25;;;;;;;;5069003;28;10417;-80
2023/11/22 01:16:52;;;;;;;;;23.50;22.25;;;;;;;;5070210;28;10262;-79
2023/11/22 01:19:19;;;;;;;;;28.50;23.75;;;;;;;;5070132;28;10336;-79
2023/11/22 01:21:46;;;;;;;;;30.00;26.25;;;;;;;;5068298;28;10346;-80
2023/11/22 01:24:14;;;;;;;;;28.25;28.25;;;;;;;;5069852;28;10378;-79
2023/11/22 01:26:41;;;;;;;;;28.25;25.75;;;;;;;;5070697;28;11250;-79
2023/11/22 01:29:08;;;;;;;;;29.25;28.75;;;;;;;;5068832;28;11244;-79
2023/11/22 01:31:36;;;;;;;;;27.25;25.00;;;;;;;;5069992;28;10367;-80
2023/11/22 01:34:05;;;;;;;;;32.75;28.50;;;;;;;;5069540;28;10392;-79
2023/11/22 01:36:32;;;;;;;;;30.25;29.00;;;;;;;;5070674;28;10341;-78
2023/11/22 01:39:00;;;;;;;;;29.00;24.75;;;;;;;;5070746;28;11632;-79
2023/11/22 01:41:29;;;;;;;;;28.00;25.75;;;;;;;;5071071;28;10396;-79
2023/11/22 01:43:57;;;;;;;;;33.25;30.50;;;;;;;;5070438;28;10504;-79
2023/11/22 01:46:26;;;;;;;;;29.00;25.00;;;;;;;;5072277;28;10574;-79
2023/11/22 01:48:53;;;;;;;;;27.25;25.75;;;;;;;;5064945;28;10496;-78
2023/11/22 01:51:23;;;;;;;;;26.75;25.75;;;;;;;;5058901;28;10660;-79
2023/11/22 01:53:53;;;;;;;;;25.75;25.75;;;;;;;;5072200;28;10583;-78
2023/11/22 01:56:21;;;;;;;;;21.25;21.00;;;;;;;;5066451;28;10904;-79
2023/11/22 01:58:49;;;;;;;;;29.75;22.25;;;;;;;;5069809;28;10524;-79
2023/11/22 02:01:16;;;;;;;;;28.75;21.75;;;;;;;;5069942;28;11177;-78
2023/11/22 02:03:43;;;;;;;;;25.75;24.25;;;;;;;;5074446;28;10578;-76
2023/11/22 02:06:10;;;;;;;;;24.50;23.00;;;;;;;;5072630;28;10653;-76
2023/11/22 02:08:39;;;;;;;;;32.50;25.50;;;;;;;;5071864;28;10499;-79
2023/11/22 02:11:06;;;;;;;;;23.75;22.25;;;;;;;;5069432;28;10765;-78
2023/11/22 02:13:34;;;;;;;;;27.75;25.00;;;;;;;;5068437;28;10574;-78
2023/11/22 02:16:01;;;;;;;;;25.75;22.50;;;;;;;;5069017;28;10591;-79
2023/11/22 02:18:29;;;;;;;;;25.50;23.75;;;;;;;;5068873;28;10654;-79
2023/11/22 02:20:56;;;;;;;;;19.00;19.00;;;;;;;;5068796;28;10688;-78
2023/11/22 02:24:07;;;;;;;;;25.25;22.00;;;;;;;;5068295;28;10663;-79
2023/11/22 02:26:34;;;;;;;;;19.25;16.00;;;;;;;;5058677;28;10753;-79
2023/11/22 02:29:04;;;;;;;;;19.00;19.00;;;;;;;;5068541;28;10562;-79
2023/11/22 02:31:33;;;;;;;;;19.75;19.75;;;;;;;;5067943;28;11465;-80
2023/11/22 02:34:01;;;;;;;;;17.50;14.50;;;;;;;;5068555;28;10795;-80
2023/11/22 02:36:28;;;;;;;;;21.75;18.25;;;;;;;;5071816;28;10737;-80
2023/11/22 02:38:59;;;;;;;;;10.25;10.25;;;;;;;;5068488;28;10660;-80
2023/11/22 02:41:29;;;;;;;;;14.75;11.25;;;;;;;;5059910;28;10571;-79
2023/11/22 02:43:56;;;;;;;;;24.50;19.00;;;;;;;;5068345;28;11665;-79
2023/11/22 02:46:24;;;;;;;;;20.00;18.25;;;;;;;;5068627;28;10723;-79
2023/11/22 02:48:53;;;;;;;;;19.00;17.50;;;;;;;;5067908;28;10866;-79
2023/11/22 02:51:21;;;;;;;;;24.00;22.00;;;;;;;;5068688;28;10957;-80
2023/11/22 02:53:48;;;;;;;;;25.75;21.75;;;;;;;;5068213;28;10856;-79
2023/11/22 02:56:17;;;;;;;;;15.25;14.25;;;;;;;;5069153;28;10871;-79
2023/11/22 02:58:44;;;;;;;;;21.00;20.00;;;;;;;;5067845;28;11097;-79
2023/11/22 03:01:11;;;;;;;;;23.00;18.75;;;;;;;;5067467;28;11033;-79
2023/11/22 03:03:39;;;;;;;;;32.50;27.25;;;;;;;;5078330;28;11121;-79
2023/11/22 03:06:07;;;;;;;;;26.00;21.50;;;;;;;;5068398;28;11291;-81
2023/11/22 03:08:34;;;;;;;;;18.75;13.00;;;;;;;;5068193;28;11114;-79
2023/11/22 03:11:02;;;;;;;;;24.75;22.00;;;;;;;;5068131;28;11047;-80
2023/11/22 03:13:30;;;;;;;;;23.00;21.25;;;;;;;;5067179;28;11123;-79
2023/11/22 03:15:58;;;;;;;;;22.50;22.50;;;;;;;;5067857;28;11127;-79
2023/11/22 03:18:26;;;;;;;;;22.50;20.50;;;;;;;;5068447;28;11197;-79
2023/11/22 03:20:54;;;;;;;;;23.50;21.75;;;;;;;;5067821;28;12177;-79
2023/11/22 03:23:21;;;;;;;;;27.50;25.75;;;;;;;;5068745;28;11472;-79
2023/11/22 03:25:49;;;;;;;;;27.25;25.00;;;;;;;;5068364;28;11271;-79
2023/11/22 03:28:17;;;;;;;;;27.00;22.25;;;;;;;;5062122;28;11457;-79
2023/11/22 03:30:46;;;;;;;;;24.50;22.50;;;;;;;;5070194;28;11442;-78
2023/11/22 03:33:14;;;;;;;;;22.00;20.50;;;;;;;;5070197;28;11601;-78
2023/11/22 03:35:43;;;;;;;;;23.50;21.50;;;;;;;;5069120;28;11282;-78
2023/11/22 03:38:10;;;;;;;;;22.25;21.00;;;;;;;;5066402;28;11383;-78
2023/11/22 03:40:37;;;;;;;;;27.25;22.25;;;;;;;;5055652;28;11310;-78
2023/11/22 03:43:04;;;;;;;;;22.50;20.25;;;;;;;;5067080;28;11527;-78
2023/11/22 03:45:32;;;;;;;;;20.00;19.00;;;;;;;;5064361;28;11473;-78
2023/11/22 03:48:00;;;;;;;;;24.00;22.00;;;;;;;;5063388;28;11500;-78
2023/11/22 03:50:27;;;;;;;;;24.75;24.50;;;;;;;;5068499;28;11463;-79
2023/11/22 03:52:55;;;;;;;;;19.00;19.00;;;;;;;;5064222;28;11617;-79
2023/11/22 03:55:22;;;;;;;;;25.50;24.25;;;;;;;;5070080;28;11606;-79
2023/11/22 03:57:50;;;;;;;;;26.25;22.75;;;;;;;;5070048;28;11488;-79
2023/11/22 04:00:19;;;;;;;;;22.25;22.25;;;;;;;;5062588;28;11489;-78
2023/11/22 04:02:48;;;;;;;;;27.50;20.50;;;;;;;;5065957;28;11548;-78
2023/11/22 04:05:17;;;;;;;;;25.00;21.00;;;;;;;;5067958;28;11488;-79
2023/11/22 04:07:44;;;;;;;;;30.75;23.50;;;;;;;;5067869;28;11518;-79
2023/11/22 04:10:14;;;;;;;;;22.50;22.50;;;;;;;;5067180;28;11490;-78
2023/11/22 04:12:41;;;;;;;;;25.00;25.00;;;;;;;;5067474;28;11481;-78
2023/11/22 04:15:10;;;;;;;;;25.00;25.00;;;;;;;;5065976;28;12284;-78
2023/11/22 04:17:37;;;;;;;;;28.75;27.00;;;;;;;;5049854;28;11569;-80
2023/11/22 04:20:09;;;;;;;;;26.50;24.25;;;;;;;;5067000;28;11499;-80
2023/11/22 04:22:38;;;;;;;;;19.50;18.25;;;;;;;;5067659;28;11505;-79
2023/11/22 04:25:09;;;;;;;;;20.25;20.00;;;;;;;;5065955;28;12246;-79
2023/11/22 04:27:36;;;;;;;;;26.00;25.75;;;;;;;;5067095;28;11493;-79
2023/11/22 04:30:13;;;;;;;;;31.25;31.25;;;;;;;;5065229;28;11497;-79
2023/11/22 04:32:41;;;;;;;;;31.50;26.25;;;;;;;;5066975;28;12255;-79
2023/11/22 04:35:09;;;;;;;;;23.00;23.00;;;;;;;;5067326;28;11507;-79
2023/11/22 04:37:38;;;;;;;;;30.00;26.25;;;;;;;;5067963;28;11539;-79
2023/11/22 04:40:07;;;;;;;;;31.00;27.25;;;;;;;;5074910;28;11578;-76
2023/11/22 04:42:34;;;;;;;;;31.00;29.50;;;;;;;;5071714;28;11510;-78
2023/11/22 04:45:02;;;;;;;;;30.75;28.50;;;;;;;;5074700;28;12247;-78
2023/11/22 04:47:32;;;;;;;;;27.25;25.00;;;;;;;;5066870;28;11476;-77
2023/11/22 04:50:02;;;;;;;;;23.50;23.25;;;;;;;;5070162;28;11629;-78
2023/11/22 04:52:29;;;;;;;;;31.50;31.50;;;;;;;;5064171;28;11490;-79
2023/11/22 04:54:58;;;;;;;;;30.25;27.00;;;;;;;;5070025;28;11512;-79
2023/11/22 04:57:25;;;;;;;;;28.75;26.00;;;;;;;;5069787;28;11444;-78
2023/11/22 05:00:03;;;;;;;;;26.00;24.50;;;;;;;;5070160;28;11586;-79
2023/11/22 05:02:30;;;;;;;;;30.75;26.75;;;;;;;;5067355;28;11423;-77
2023/11/22 05:04:57;;;;;;;;;32.75;27.25;;;;;;;;5069587;28;12253;-79
2023/11/22 05:07:25;;;;;;;;;27.50;25.75;;;;;;;;5071343;28;11597;-79
2023/11/22 05:09:52;;;;;;;;;24.25;22.50;;;;;;;;5077481;28;11609;-78
2023/11/22 05:12:21;;;;;;;;;34.50;31.00;;;;;;;;5070943;28;11619;-80
2023/11/22 05:14:55;;;;;;;;;39.00;34.50;;;;;;;;5065476;28;11501;-81
2023/11/22 05:17:22;;;;;;;;;32.00;29.25;;;;;;;;5070561;28;12352;-81
2023/11/22 05:19:50;;;;;;;;;23.50;22.50;;;;;;;;5073383;28;11513;-79
2023/11/22 05:22:18;;;;;;;;;36.00;32.00;;;;;;;;5073079;28;11471;-78
2023/11/22 05:24:45;;;;;;;;;31.25;24.75;;;;;;;;5071974;28;11491;-77
2023/11/22 05:27:13;;;;;;;;;40.25;34.50;;;;;;;;5064860;28;11518;-78
2023/11/22 05:29:42;;;;;;;;;31.50;30.50;;;;;;;;5072285;28;11487;-78
2023/11/22 05:32:09;;;;;;;;;37.00;30.25;;;;;;;;5059287;28;11467;-78
2023/11/22 05:34:37;;;;;;;;;34.00;31.25;;;;;;;;5070621;28;11491;-79
2023/11/22 05:37:05;;;;;;;;;35.00;30.50;;;;;;;;5071510;28;11495;-79
2023/11/22 05:39:33;;;;;;;;;32.50;30.00;;;;;;;;5070132;28;11644;-79
2023/11/22 05:42:00;;;;;;;;;32.25;30.25;;;;;;;;5080180;28;11488;-80
2023/11/22 05:44:30;;;;;;;;;37.25;33.75;;;;;;;;5072884;28;11566;-80
2023/11/22 05:46:58;;;;;;;;;34.50;29.50;;;;;;;;5071680;28;11515;-79
2023/11/22 05:49:26;;;;;;;;;29.50;27.75;;;;;;;;5068834;28;11470;-79
2023/11/22 05:51:53;;;;;;;;;31.50;30.50;;;;;;;;5069003;28;11486;-79
2023/11/22 05:54:23;;;;;;;;;29.00;28.75;;;;;;;;5069419;28;12436;-79
2023/11/22 05:56:54;;;;;;;;;35.00;28.25;;;;;;;;5069193;28;11554;-78
2023/11/22 05:59:21;;;;;;;;;29.50;29.00;;;;;;;;5068113;28;11616;-79
2023/11/22 06:01:48;;;;;;;;;29.75;28.00;;;;;;;;5068326;28;11467;-79
2023/11/22 06:04:22;;;;;;;;;37.75;33.00;;;;;;;;5068445;28;11536;-78
2023/11/22 06:06:52;;;;;;;;;37.25;34.00;;;;;;;;5068548;28;11643;-76
2023/11/22 06:09:19;;;;;;;;;33.25;31.50;;;;;;;;5070326;28;11535;-79
2023/11/22 06:11:46;;;;;;;;;35.50;30.50;;;;;;;;5068106;28;12498;-78
2023/11/22 06:14:13;;;;;;;;;37.75;35.50;;;;;;;;5069293;28;11569;-77
2023/11/22 06:16:41;;;;;;;;;40.50;36.50;;;;;;;;5068577;28;11652;-77
2023/11/22 06:19:08;;;;;;;;;31.00;24.50;;;;;;;;5068534;28;11639;-77
2023/11/22 06:21:38;;;;;;;;;35.50;34.25;;;;;;;;5070001;28;11609;-80
2023/11/22 06:24:08;;;;;;;;;36.50;33.50;;;;;;;;5077734;28;11708;-80
2023/11/22 06:26:37;;;;;;;;;36.00;30.25;;;;;;;;5068007;28;11532;-78
2023/11/22 06:29:21;;;;;;;;;39.50;35.50;;;;;;;;5068769;28;11533;-81
2023/11/22 06:31:48;;;;;;;;;44.50;35.50;;;;;;;;5067563;28;12468;-77
2023/11/22 06:34:23;;;;;;;;;38.00;32.75;;;;;;;;5068477;28;11530;-78
2023/11/22 06:37:01;;;;;;;;;45.00;37.75;;;;;;;;5056889;28;11528;-78
2023/11/22 06:39:28;;;;;;;;;34.00;32.50;;;;;;;;5068258;28;11541;-77
2023/11/22 06:41:55;;;;;;;;;43.75;37.25;;;;;;;;5068202;28;11574;-79
2023/11/22 06:44:22;;;;;;;;;35.50;35.50;;;;;;;;5068446;28;11549;-79
2023/11/22 06:46:56;;;;;;;;;28.75;28.50;;;;;;;;5068739;28;11614;-77
2023/11/22 06:49:29;;;;;;;;;32.00;30.75;;;;;;;;5067926;28;11677;-78
2023/11/22 06:51:58;;;;;;;;;38.00;32.00;;;;;;;;5067815;28;11537;-78
2023/11/22 06:54:26;;;;;;;;;46.25;37.00;;;;;;;;5067507;28;11610;-77
2023/11/22 06:57:02;;;;;;;;;41.75;35.00;;;;;;;;5069271;28;11566;-77
2023/11/22 06:59:30;;;;;;;;;47.00;36.75;;;;;;;;5057560;28;11547;-77
2023/11/22 07:01:57;;;;;;;;;42.25;38.00;;;;;;;;5068110;28;11653;-78
2023/11/22 07:04:24;;;;;;;;;42.00;38.50;;;;;;;;5069456;28;11564;-78
2023/11/22 07:06:54;;;;;;;;;43.75;40.00;;;;;;;;5070626;28;11534;-77
2023/11/22 07:09:23;;;;;;;;;43.75;38.75;;;;;;;;5068300;28;11568;-79
2023/11/22 07:11:51;;;;;;;;;43.00;37.75;;;;;;;;5065658;28;11657;-79
2023/11/22 07:14:19;;;;;;;;;40.75;35.75;;;;;;;;5063993;28;11542;-81
2023/11/22 07:16:46;;;;;;;;;47.00;39.50;;;;;;;;5068088;28;11561;-78
2023/11/22 07:19:14;;;;;;;;;43.00;37.75;;;;;;;;5061548;28;11568;-76
2023/11/22 07:21:43;;;;;;;;;43.25;37.00;;;;;;;;5068538;28;11585;-76
2023/11/22 07:24:14;;;;;;;;;42.50;38.50;;;;;;;;5069287;28;11574;-76
2023/11/22 07:26:43;;;;;;;;;50.25;39.75;;;;;;;;5069556;28;11551;-78
2023/11/22 07:29:11;;;;;;;;;42.25;37.75;;;;;;;;5069213;28;11674;-78
2023/11/22 07:31:39;;;;;;;;;47.75;39.75;;;;;;;;5067437;28;11486;-80
2023/11/22 07:34:08;;;;;;;;;45.75;37.00;;;;;;;;5067262;28;11682;-77
2023/11/22 07:36:37;;;;;;;;;41.50;39.50;;;;;;;;5058403;28;11674;-76
2023/11/22 07:39:05;;;;;;;;;44.50;37.50;;;;;;;;5068075;28;11581;-80
2023/11/22 07:41:34;;;;;;;;;44.50;37.50;;;;;;;;5067978;28;11562;-78
2023/11/22 07:44:04;;;;;;;;;45.25;36.75;;;;;;;;5066357;28;11568;-78
2023/11/22 07:46:35;;;;;;;;;43.00;37.50;;;;;;;;5056451;28;11584;-77
2023/11/22 07:49:03;;;;;;;;;53.75;41.25;;;;;;;;5066330;28;11544;-77
2023/11/22 07:51:30;;;;;;;;;48.75;39.75;;;;;;;;5067422;28;11550;-83
2023/11/22 07:54:00;;;;;;;;;41.75;37.00;;;;;;;;5066865;28;11677;-78
2023/11/22 07:56:27;;;;;;;;;39.50;32.25;;;;;;;;5067818;28;11597;-78
2023/11/22 07:58:54;;;;;;;;;36.00;35.00;;;;;;;;5066513;28;11627;-78
2023/11/22 08:01:23;;;;;;;;;38.50;36.00;;;;;;;;5065738;28;11627;-78
2023/11/22 08:03:53;;;;;;;;;39.75;33.75;;;;;;;;5066973;28;11552;-79
2023/11/22 08:06:20;;;;;;;;;41.25;37.75;;;;;;;;5067603;28;11520;-77
2023/11/22 08:08:47;;;;;;;;;39.25;37.25;;;;;;;;5067152;28;11557;-77
2023/11/22 08:11:17;;;;;;;;;38.00;35.00;;;;;;;;5067154;28;11529;-76
2023/11/22 08:13:45;;;;;;;;;49.50;39.25;;;;;;;;5066101;28;11548;-79
2023/11/22 08:16:14;;;;;;;;;41.50;36.50;;;;;;;;5066859;28;11560;-77
2023/11/22 08:18:42;;;;;;;;;47.25;38.50;;;;;;;;5064577;28;11543;-79
2023/11/22 08:21:10;;;;;;;;;41.25;37.50;;;;;;;;5066769;28;11545;-78
2023/11/22 08:23:38;;;;;;;;;39.25;34.75;;;;;;;;5069803;28;11523;-76
2023/11/22 08:26:06;;;;;;;;;43.50;38.25;;;;;;;;5070817;28;11540;-76
2023/11/22 08:28:35;;;;;;;;;39.75;37.25;;;;;;;;5071225;28;11610;-76
2023/11/22 08:31:04;;;;;;;;;46.25;36.75;;;;;;;;5069746;28;12278;-76
2023/11/22 08:33:31;;;;;;;;;46.50;42.25;;;;;;;;5070829;28;11547;-77
2023/11/22 08:36:00;;;;;;;;;54.25;42.25;;;;;;;;5069369;28;11648;-77
2023/11/22 08:38:28;;;;;;;;;37.00;31.00;;;;;;;;5079091;28;11550;-78
2023/11/22 08:40:56;;;;;;;;;50.25;40.75;;;;;;;;5074441;28;11675;-77
2023/11/22 08:43:25;;;;;;;;;45.00;37.75;;;;;;;;5070303;28;11563;-78
2023/11/22 08:45:52;;;;;;;;;33.00;30.50;;;;;;;;5070283;28;11680;-78
2023/11/22 08:48:20;;;;;;;;;40.75;38.50;;;;;;;;5071535;28;12388;-77
2023/11/22 08:50:48;;;;;;;;;40.00;38.00;;;;;;;;5071511;28;11519;-76
2023/11/22 08:53:18;;;;;;;;;40.50;36.75;;;;;;;;5071985;28;11584;-78
2023/11/22 08:55:45;;;;;;;;;38.75;32.25;;;;;;;;5073192;28;11555;-77
2023/11/22 08:58:13;;;;;;;;;40.75;37.00;;;;;;;;5070510;28;11498;-77
2023/11/22 09:00:41;;;;;;;;;35.50;33.00;;;;;;;;5065296;28;11513;-78
2023/11/22 09:03:10;;;;;;;;;43.50;38.25;;;;;;;;5058383;28;11577;-77
2023/11/22 09:05:38;;;;;;;;;42.00;37.25;;;;;;;;5067172;28;11603;-78
2023/11/22 09:08:05;;;;;;;;;42.00;36.25;;;;;;;;5069345;28;12417;-78
2023/11/22 09:10:34;;;;;;;;;42.25;35.75;;;;;;;;5070933;28;11679;-76
2023/11/22 09:13:02;;;;;;;;;42.25;38.00;;;;;;;;5070394;28;11491;-78
2023/11/22 09:15:29;;;;;;;;;38.50;36.00;;;;;;;;5071559;28;12307;-76
2023/11/22 09:17:57;;;;;;;;;36.00;36.00;;;;;;;;5072433;28;11507;-77
2023/11/22 09:20:24;;;;;;;;;39.25;36.25;;;;;;;;5071863;28;11516;-80
2023/11/22 09:22:55;;;;;;;;;44.75;37.50;;;;;;;;5070381;28;12245;-77
2023/11/22 09:25:27;;;;;;;;;42.00;33.25;;;;;;;;5069247;28;11513;-77
2023/11/22 09:27:58;;;;;;;;;41.00;36.50;;;;;;;;5065434;28;11501;-77
2023/11/22 09:30:40;;;;;;;;;40.50;38.50;;;;;;;;5069239;28;11403;-77
2023/11/22 09:33:10;;;;;;;;;36.00;31.75;;;;;;;;5068666;28;11688;-81
2023/11/22 09:35:37;;;;;;;;;39.25;33.75;;;;;;;;5069165;28;11642;-80
2023/11/22 09:38:09;;;;;;;;;43.25;35.00;;;;;;;;5067254;28;11480;-80
2023/11/22 09:40:37;;;;;;;;;39.75;35.00;;;;;;;;5069713;28;11590;-79
2023/11/22 09:43:05;;;;;;;;;40.75;37.00;;;;;;;;5068076;28;11474;-80
2023/11/22 09:45:33;;;;;;;;;27.25;26.75;;;;;;;;5069224;28;12361;-79
2023/11/22 09:48:01;;;;;;;;;36.50;35.50;;;;;;;;5057106;28;11128;-79
2023/11/22 09:50:36;;;;;;;;;38.75;34.75;;;;;;;;5068789;28;11267;-79
2023/11/22 09:53:04;;;;;;;;;39.75;34.50;;;;;;;;5069848;28;11472;-78
2023/11/22 09:55:32;;;;;;;;;31.75;29.50;;;;;;;;5069266;28;11888;-80
2023/11/22 09:58:00;;;;;;;;;45.75;37.75;;;;;;;;5069329;28;11815;-80
2023/11/22 10:00:31;;;;;;;;;35.75;34.50;;;;;;;;5068562;28;11135;-79
2023/11/22 10:02:58;;;;;;;;;32.75;32.50;;;;;;;;5068992;28;11770;-78
2023/11/22 10:05:28;;;;;;;;;40.00;31.75;;;;;;;;5068754;28;11147;-80
2023/11/22 10:07:56;;;;;;;;;37.75;35.00;;;;;;;;5068804;28;11063;-81
2023/11/22 10:10:26;;;;;;;;;37.50;35.25;;;;;;;;5068853;28;11134;-79
2023/11/22 10:12:56;;;;;;;;;38.25;35.75;;;;;;;;5068231;28;10989;-79
2023/11/22 10:15:24;;;;;;;;;33.25;29.75;;;;;;;;5066917;28;10982;-77
2023/11/22 10:18:00;;;;;;;;;33.00;28.00;;;;;;;;5069131;28;10947;-77
2023/11/22 10:20:37;;;;;;;;;36.00;32.00;;;;;;;;5067674;28;10661;-80
2023/11/22 10:23:05;;;;;;;;;24.25;23.25;;;;;;;;5068327;28;10651;-77
2023/11/22 10:25:33;;;;;;;;;33.75;31.50;;;;;;;;5069045;28;10517;-77
2023/11/22 10:28:01;;;;;;;;;29.00;27.50;;;;;;;;5067642;28;10400;-77
2023/11/22 10:30:30;;;;;;;;;22.75;20.75;;;;;;;;5069346;28;10256;-81
2023/11/22 10:33:01;;;;;;;;;27.50;25.50;;;;;;;;5070832;28;11098;-80
2023/11/22 10:35:32;;;;;;;;;29.00;25.75;;;;;;;;5078304;28;10225;-78
2023/11/22 10:38:02;;;;;;;;;26.75;25.00;;;;;;;;5067226;28;10220;-78
2023/11/22 10:40:44;;;;;;;;;27.75;27.75;;;;;;;;5070544;28;9953;-79
2023/11/22 10:43:12;;;;;;;;;31.50;28.50;;;;;;;;5059845;28;10912;-80
2023/11/22 10:45:45;;;;;;;;;24.75;23.50;;;;;;;;5070557;28;10101;-78
2023/11/22 10:48:16;;;;;;;;;24.75;23.75;;;;;;;;5062607;28;10083;-80
2023/11/22 10:50:44;;;;;;;;;32.25;29.00;;;;;;;;5061474;28;9976;-77
2023/11/22 10:53:15;;;;;;;;;28.25;25.50;;;;;;;;5062389;28;9859;-79
2023/11/22 10:55:46;;;;;;;;;24.50;23.50;;;;;;;;5071031;28;9916;-79
2023/11/22 10:58:15;;;;;;;;;26.00;25.50;;;;;;;;5069006;28;9815;-79
2023/11/22 11:00:44;;;;;;;;;19.25;18.50;;;;;;;;5068165;28;9848;-77
2023/11/22 11:03:18;;;;;;;;;27.50;27.50;;;;;;;;5070085;28;9778;-77
2023/11/22 11:05:52;;;;;;;;;30.75;29.50;;;;;;;;5070872;28;9597;-77
2023/11/22 11:08:20;;;;;;;;;35.75;29.50;;;;;;;;5069534;28;9863;-77
2023/11/22 11:10:49;;;;;;;;;31.25;30.75;;;;;;;;5068092;28;9866;-77
2023/11/22 11:13:17;;;;;;;;;30.25;27.00;;;;;;;;5067277;28;9878;-78
2023/11/22 11:15:45;;;;;;;;;30.00;27.25;;;;;;;;5067063;28;9628;-79
2023/11/22 11:18:16;;;;;;;;;20.25;18.75;;;;;;;;5067673;28;9733;-80
2023/11/22 11:20:49;;;;;;;;;35.00;32.50;;;;;;;;5067954;28;9644;-77
2023/11/22 11:23:18;;;;;;;;;29.75;29.75;;;;;;;;5066801;28;9946;-76
2023/11/22 11:25:46;;;;;;;;;32.75;31.75;;;;;;;;5067817;28;9729;-76
2023/11/22 11:28:13;;;;;;;;;32.00;29.25;;;;;;;;5066766;28;9569;-78
2023/11/22 11:30:53;;;;;;;;;29.75;26.00;;;;;;;;5067154;28;9505;-78
2023/11/22 11:33:29;;;;;;;;;25.33;24.00;;;;;;;;5065765;28;9463;-78
2023/11/22 11:36:00;;;;;;;;;38.00;34.25;;;;;;;;5065873;28;9472;-81
2023/11/22 11:38:32;;;;;;;;;24.67;24.67;;;;;;;;5068015;28;9706;-77
2023/11/22 11:41:07;;;;;;;;;25.00;24.33;;;;;;;;5067209;28;9429;-81
2023/11/22 11:43:41;;;;;;;;;28.33;26.33;;;;;;;;5067901;28;9407;-82
2023/11/22 11:46:09;;;;;;;;;30.67;27.67;;;;;;;;5067097;28;10035;-79
2023/11/22 11:48:38;;;;;;;;;32.33;30.67;;;;;;;;5067988;28;9332;-76
2023/11/22 11:51:06;;;;;;;;;30.33;28.00;;;;;;;;5071835;28;9442;-77
2023/11/22 11:53:33;;;;;;;;;27.67;23.00;;;;;;;;5073681;28;9175;-82
2023/11/22 11:56:02;;;;;;;;;26.33;26.33;;;;;;;;5069386;28;9085;-88
2023/11/22 11:58:31;;;;;;;;;23.67;23.67;;;;;;;;5075948;28;9085;-84
2023/11/22 12:00:59;;;;;;;;;21.33;21.33;;;;;;;;5072636;28;9133;-81
2023/11/22 12:03:26;;;;;;;;;24.33;22.00;;;;;;;;5072013;28;9018;-78
2023/11/22 12:05:54;;;;;;;;;25.33;24.00;;;;;;;;5070924;28;8999;-84
2023/11/22 12:08:24;;;;;;;;;22.00;21.25;;;;;;;;5071937;28;9005;-80
2023/11/22 12:10:58;;;;;;;;;20.00;18.75;;;;;;;;5072569;28;8852;-78
2023/11/22 12:13:26;;;;;;;;;17.33;16.67;;;;;;;;5071274;28;8929;-80
2023/11/22 12:15:54;;;;;;;;;22.50;22.25;;;;;;;;5070831;28;9714;-81
2023/11/22 12:18:21;;;;;;;;;19.00;18.75;;;;;;;;5071863;28;8887;-81
2023/11/22 12:21:00;;;;;;;;;26.00;24.00;;;;;;;;5071908;28;8876;-81
2023/11/22 12:23:28;;;;;;;;;21.00;20.00;;;;;;;;5067908;28;8946;-82
2023/11/22 12:25:56;;;;;;;;;23.75;21.00;;;;;;;;5071852;28;8867;-79
2023/11/22 12:28:25;;;;;;;;;21.00;17.25;;;;;;;;5054991;28;8872;-77
2023/11/22 12:30:53;;;;;;;;;17.25;15.75;;;;;;;;5072297;28;8780;-76
2023/11/22 12:33:23;;;;;;;;;18.00;18.00;;;;;;;;5072060;28;8878;-79
2023/11/22 12:35:50;;;;;;;;;23.25;22.50;;;;;;;;5064525;28;8860;-78
2023/11/22 12:38:19;;;;;;;;;16.00;15.50;;;;;;;;5073397;28;8864;-79
2023/11/22 12:40:47;;;;;;;;;18.25;17.50;;;;;;;;5065073;28;8860;-79
2023/11/22 12:43:16;;;;;;;;;15.50;15.50;;;;;;;;5064443;28;8985;-77
2023/11/22 12:45:56;;;;;;;;;23.25;21.75;;;;;;;;5072514;28;8840;-80
2023/11/22 12:48:24;;;;;;;;;23.00;23.00;;;;;;;;5065011;28;8975;-78
2023/11/22 12:50:53;;;;;;;;;20.50;17.25;;;;;;;;5072503;28;8893;-77
2023/11/22 12:53:25;;;;;;;;;15.50;13.75;;;;;;;;5072308;28;8863;-77
2023/11/22 12:55:56;;;;;;;;;20.75;19.75;;;;;;;;5070565;28;8909;-78
2023/11/22 12:58:27;;;;;;;;;18.00;16.75;;;;;;;;5070207;28;8832;-77
2023/11/22 13:01:08;;;;;;;;;18.00;14.75;;;;;;;;5069378;28;8801;-76
2023/11/22 13:03:38;;;;;;;;;20.75;20.75;;;;;;;;5065991;28;8959;-76
2023/11/22 13:06:06;;;;;;;;;28.50;25.75;;;;;;;;5069704;28;8863;-77
2023/11/22 13:08:35;;;;;;;;;25.00;25.00;;;;;;;;5069031;28;8831;-79
2023/11/22 13:11:02;;;;;;;;;26.75;26.00;;;;;;;;5069836;28;8844;-78
2023/11/22 13:13:30;;;;;;;;;23.00;23.00;;;;;;;;5069684;28;8841;-78
2023/11/22 13:16:00;;;;;;;;;27.67;26.67;;;;;;;;5069712;28;8954;-76
2023/11/22 13:18:27;;;;;;;;;29.00;27.67;;;;;;;;5070025;28;9731;-77
2023/11/22 13:20:55;;;;;;;;;27.33;25.00;;;;;;;;5069588;28;9822;-75
2023/11/22 13:23:22;;;;;;;;;30.00;27.67;;;;;;;;5069793;28;8993;-76
2023/11/22 13:25:54;;;;;;;;;24.75;22.25;;;;;;;;5070174;28;9135;-77
2023/11/22 13:28:21;;;;;;;;;23.50;23.50;;;;;;;;5070019;28;8887;-78
2023/11/22 13:30:53;;;;;;;;;22.33;22.33;;;;;;;;5069963;28;8805;-79
2023/11/22 13:33:24;;;;;;;;;32.33;30.33;;;;;;;;5071037;28;9071;-79
2023/11/22 13:35:53;;;;;;;;;26.67;26.67;;;;;;;;5071186;28;9035;-77
2023/11/22 13:38:21;;;;;;;;;26.67;25.00;;;;;;;;5060482;28;8942;-79
2023/11/22 13:40:52;;;;;;;;;25.00;23.67;;;;;;;;5069884;28;9022;-79
2023/11/22 13:43:20;;;;;;;;;20.67;19.33;;;;;;;;5070099;28;8945;-77
2023/11/22 13:45:50;;;;;;;;;20.33;19.00;;;;;;;;5068615;28;9022;-79
2023/11/22 13:48:17;;;;;;;;;19.33;19.33;;;;;;;;5069741;28;9022;-79
2023/11/22 13:50:45;;;;;;;;;19.67;18.67;;;;;;;;5051659;28;8937;-79
2023/11/22 13:53:12;;;;;;;;;21.67;20.33;;;;;;;;5068839;28;9013;-77
2023/11/22 13:55:41;;;;;;;;;27.00;24.67;;;;;;;;5069874;28;9062;-78
2023/11/22 13:58:09;;;;;;;;;25.33;21.00;;;;;;;;5068582;28;9243;-82
2023/11/22 14:00:38;;;;;;;;;20.67;15.67;;;;;;;;5080516;28;9061;-80
2023/11/22 14:03:06;;;;;;;;;16.33;16.33;;;;;;;;5069614;28;9009;-83
2023/11/22 14:05:36;;;;;;;;;20.00;18.75;;;;;;;;5068792;28;9855;-81
2023/11/22 14:08:04;;;;;;;;;23.50;21.00;;;;;;;;5069675;28;8884;-80
2023/11/22 14:10:31;;;;;;;;;22.67;21.00;;;;;;;;5068049;28;8930;-82
2023/11/22 14:13:00;;;;;;;;;22.00;18.00;;;;;;;;5070636;28;9041;-80
2023/11/22 14:15:32;;;;;;;;;19.50;19.50;;;;;;;;5073005;28;8929;-79
2023/11/22 14:18:00;;;;;;;;;18.75;18.25;;;;;;;;5068630;28;8847;-82
2023/11/22 14:20:29;;;;;;;;;17.50;16.25;;;;;;;;5071166;28;8850;-81
2023/11/22 14:22:56;;;;;;;;;15.75;13.75;;;;;;;;5063888;28;8859;-81
2023/11/22 14:25:23;;;;;;;;;18.75;17.50;;;;;;;;5070226;28;9000;-84
2023/11/22 14:27:55;;;;;;;;;18.33;16.00;;;;;;;;5069818;28;8984;-82
2023/11/22 14:30:30;;;;;;;;;17.67;17.33;;;;;;;;5066355;28;8902;-81